createdAt,value
2022-08-07T00:01:43.311Z,1.50
2022-08-07T00:03:52.862Z,2.10
2022-08-07T00:06:29.764Z,1.70
2022-08-07T00:09:17.074Z,1.77
2022-08-07T00:11:55.510Z,1.50
2022-08-07T00:14:30.364Z,1.70
2022-08-07T00:17:02.752Z,1.70
2022-08-07T00:19:59.657Z,1.47
2022-08-07T00:22:24.526Z,2.00
2022-08-07T00:25:04.997Z,1.63
2022-08-07T00:27:51.890Z,1.47
2022-08-07T00:30:21.771Z,8.17
2022-08-07T00:32:55.183Z,2.73
2022-08-07T00:35:23.084Z,2.73
2022-08-07T00:37:50.853Z,3.70
2022-08-07T00:40:36.495Z,1.90
2022-08-07T00:43:09.969Z,2.20
2022-08-07T00:45:41.921Z,2.07
2022-08-07T00:48:13.437Z,1.80
2022-08-07T00:50:51.120Z,2.30
2022-08-07T00:53:20.557Z,2.40
2022-08-07T00:56:03.022Z,2.77
2022-08-07T00:58:30.996Z,3.00
2022-08-07T01:00:58.871Z,2.47
2022-08-07T01:03:55.980Z,3.20
2022-08-07T01:06:13.653Z,3.17
2022-08-07T01:08:53.115Z,3.13
2022-08-07T01:12:09.538Z,2.80
2022-08-07T01:14:09.269Z,3.07
2022-08-07T01:16:37.133Z,3.20
2022-08-07T01:19:14.778Z,3.03
2022-08-07T01:21:48.177Z,2.53
2022-08-07T01:24:18.656Z,2.80
2022-08-07T01:26:51.771Z,3.00
2022-08-07T01:29:22.042Z,2.57
2022-08-07T01:31:50.040Z,2.70
2022-08-07T01:34:18.757Z,2.60
2022-08-07T01:36:52.627Z,2.73
2022-08-07T01:39:41.293Z,2.73
2022-08-07T01:42:40.200Z,3.40
2022-08-07T01:45:02.994Z,3.07
2022-08-07T01:48:20.136Z,2.60
2022-08-07T01:50:17.230Z,3.03
2022-08-07T01:52:58.787Z,2.97
2022-08-07T01:55:45.182Z,2.90
2022-08-07T01:58:27.538Z,2.23
2022-08-07T02:01:09.838Z,2.67
2022-08-07T02:03:56.606Z,2.40
2022-08-07T02:06:31.294Z,2.53
2022-08-07T02:09:03.606Z,2.60
2022-08-07T02:12:04.194Z,3.00
2022-08-07T02:14:36.178Z,2.50
2022-08-07T02:17:10.970Z,2.80
2022-08-07T02:20:06.975Z,3.00
2022-08-07T02:22:30.679Z,3.20
2022-08-07T02:24:58.714Z,3.13
2022-08-07T02:27:34.390Z,3.03
2022-08-07T02:30:06.413Z,3.60
2022-08-07T02:32:39.503Z,3.00
2022-08-07T02:36:28.564Z,3.40
2022-08-07T02:38:16.150Z,3.40
2022-08-07T02:40:44.520Z,3.33
2022-08-07T02:43:15.465Z,3.00
2022-08-07T02:45:58.378Z,3.70
2022-08-07T02:48:28.237Z,3.40
2022-08-07T02:50:56.664Z,3.40
2022-08-07T02:53:31.305Z,3.30
2022-08-07T02:56:13.048Z,4.03
2022-08-07T02:58:51.322Z,3.50
2022-08-07T03:01:35.552Z,3.50
2022-08-07T03:04:07.762Z,3.53
2022-08-07T03:06:41.931Z,3.80
2022-08-07T03:09:11.460Z,4.07
2022-08-07T03:11:39.258Z,3.60
2022-08-07T03:14:22.445Z,3.50
2022-08-07T03:16:49.834Z,3.63
2022-08-07T03:19:20.132Z,4.07
2022-08-07T03:21:50.892Z,3.50
2022-08-07T03:24:26.974Z,3.40
2022-08-07T03:27:00.228Z,3.30
2022-08-07T03:29:33.780Z,3.40
2022-08-07T03:32:05.270Z,3.23
2022-08-07T03:34:39.414Z,3.67
2022-08-07T03:37:17.750Z,3.90
2022-08-07T03:40:13.189Z,4.00
2022-08-07T03:42:36.069Z,3.67
2022-08-07T03:45:04.341Z,3.60
2022-08-07T03:47:48.057Z,3.80
2022-08-07T03:50:22.956Z,3.60
2022-08-07T03:52:52.561Z,4.00
2022-08-07T03:55:19.688Z,3.60
2022-08-07T03:58:33.768Z,3.70
2022-08-07T04:00:38.501Z,3.43
2022-08-07T04:03:13.785Z,3.77
2022-08-07T04:05:42.262Z,4.17
2022-08-07T04:08:12.226Z,4.20
2022-08-07T04:10:42.201Z,3.40
2022-08-07T04:13:15.461Z,3.60
2022-08-07T04:15:43.856Z,3.70
2022-08-07T04:18:58.580Z,3.40
2022-08-07T04:21:01.738Z,3.10
2022-08-07T04:23:43.973Z,3.70
2022-08-07T04:26:21.917Z,3.07
2022-08-07T04:28:49.136Z,3.23
2022-08-07T04:31:20.313Z,3.17
2022-08-07T04:34:05.223Z,3.40
2022-08-07T04:36:44.174Z,3.33
2022-08-07T04:39:12.605Z,3.13
2022-08-07T04:41:39.491Z,2.80
2022-08-07T04:44:12.420Z,2.70
2022-08-07T04:47:56.766Z,2.63
2022-08-07T04:50:14.129Z,2.33
2022-08-07T04:52:59.530Z,2.27
2022-08-07T04:58:15.263Z,2.57
2022-08-07T04:59:09.160Z,2.23
2022-08-07T05:01:47.042Z,1.90
2022-08-07T05:04:28.781Z,1.98
2022-08-07T05:07:20.269Z,1.90
2022-08-07T05:10:02.684Z,2.22
2022-08-07T05:12:46.334Z,2.17
2022-08-07T05:15:25.093Z,2.28
2022-08-07T05:17:58.447Z,2.25
2022-08-07T05:20:34.869Z,2.90
2022-08-07T05:23:36.056Z,2.15
2022-08-07T05:26:13.148Z,2.55
2022-08-07T05:28:49.961Z,2.13
2022-08-07T05:31:19.015Z,2.35
2022-08-07T05:34:01.196Z,2.20
2022-08-07T05:36:35.790Z,2.42
2022-08-07T05:40:05.517Z,2.45
2022-08-07T05:42:01.552Z,2.40
2022-08-07T05:44:35.199Z,2.50
2022-08-07T05:47:38.587Z,2.28
2022-08-07T05:49:51.920Z,2.30
2022-08-07T05:52:20.145Z,2.25
2022-08-07T05:54:55.594Z,2.20
2022-08-07T05:57:26.644Z,2.28
2022-08-07T06:00:01.270Z,2.70
2022-08-07T06:02:31.214Z,2.20
2022-08-07T06:05:10.912Z,2.50
2022-08-07T06:08:12.961Z,2.50
2022-08-07T06:10:29.900Z,2.00
2022-08-07T06:12:57.092Z,2.60
2022-08-07T06:15:41.881Z,2.03
2022-08-07T06:18:12.493Z,2.30
2022-08-07T06:20:51.061Z,2.70
2022-08-07T06:24:36.743Z,2.38
2022-08-07T06:26:16.702Z,2.20
2022-08-07T06:28:56.892Z,2.20
2022-08-07T06:31:38.846Z,2.40
2022-08-07T06:34:12.943Z,2.47
2022-08-07T06:36:40.174Z,2.85
2022-08-07T06:40:15.721Z,3.15
2022-08-07T06:42:11.520Z,3.80
2022-08-07T06:44:39.961Z,2.80
2022-08-07T06:47:10.204Z,2.30
2022-08-07T06:49:51.502Z,2.30
2022-08-07T06:52:31.907Z,2.30
2022-08-07T06:55:31.199Z,2.30
2022-08-07T06:58:09.541Z,2.17
2022-08-07T07:00:42.385Z,2.20
2022-08-07T07:03:13.735Z,2.17
2022-08-07T07:06:03.981Z,2.33
2022-08-07T07:08:31.011Z,2.05
2022-08-07T07:11:01.002Z,1.90
2022-08-07T07:13:56.726Z,2.10
2022-08-07T07:16:31.219Z,1.88
2022-08-07T07:19:11.287Z,2.40
2022-08-07T07:22:05.111Z,2.08
2022-08-07T07:24:43.056Z,2.15
2022-08-07T07:27:35.845Z,2.08
2022-08-07T07:30:32.569Z,2.00
2022-08-07T07:33:06.315Z,2.25
2022-08-07T07:35:44.072Z,1.80
2022-08-07T07:38:27.716Z,1.92
2022-08-07T07:41:02.158Z,1.90
2022-08-07T07:44:14.417Z,2.00
2022-08-07T07:46:37.922Z,2.03
2022-08-07T07:50:34.647Z,2.22
2022-08-07T07:51:59.641Z,1.85
2022-08-07T07:54:28.257Z,2.03
2022-08-07T07:56:57.387Z,1.88
2022-08-07T07:59:51.681Z,1.98
2022-08-07T08:02:22.650Z,1.67
2022-08-07T08:05:14.461Z,2.10
2022-08-07T08:07:51.554Z,1.88
2022-08-07T08:10:35.554Z,2.08
2022-08-07T08:13:10.375Z,2.03
2022-08-07T08:15:58.960Z,1.77
2022-08-07T08:18:29.023Z,1.75
2022-08-07T08:21:00.194Z,1.90
2022-08-07T08:23:49.581Z,1.77
2022-08-07T08:26:38.067Z,1.48
2022-08-07T08:29:06.126Z,1.30
2022-08-07T08:32:16.882Z,1.55
2022-08-07T08:34:27.171Z,1.48
2022-08-07T08:36:57.886Z,1.60
2022-08-07T08:39:39.832Z,1.60
2022-08-07T08:42:27.568Z,1.05
2022-08-07T08:44:58.932Z,1.45
2022-08-07T08:48:06.833Z,1.40
2022-08-07T08:51:03.359Z,1.23
2022-08-07T08:53:57.803Z,1.30
2022-08-07T08:56:33.004Z,1.45
2022-08-07T08:59:13.476Z,1.20
2022-08-07T09:02:08.887Z,1.13
2022-08-07T09:05:03.751Z,1.30
2022-08-07T09:08:06.472Z,0.90
2022-08-07T09:10:51.508Z,1.00
2022-08-07T09:13:37.686Z,0.88
2022-08-07T09:16:22.816Z,1.15
2022-08-07T09:19:51.168Z,0.90
2022-08-07T09:24:29.106Z,0.80
2022-08-07T09:25:17.563Z,0.70
2022-08-07T09:28:01.757Z,0.60
2022-08-07T09:31:03.150Z,0.70
2022-08-07T09:33:56.617Z,0.80
2022-08-07T09:36:54.720Z,0.80
2022-08-07T09:39:55.594Z,0.80
2022-08-07T09:43:08.383Z,1.00
2022-08-07T09:47:23.554Z,1.00
2022-08-07T09:50:00.732Z,1.10
2022-08-07T09:52:09.787Z,0.80
2022-08-07T09:54:45.184Z,1.02
2022-08-07T09:57:47.272Z,0.85
2022-08-07T10:00:16.360Z,0.63
2022-08-07T10:04:06.291Z,0.80
2022-08-07T10:06:35.669Z,0.70
2022-08-07T10:09:42.747Z,0.80
2022-08-07T10:12:52.680Z,0.93
2022-08-07T10:15:44.291Z,1.00
2022-08-07T10:18:50.086Z,0.90
2022-08-07T10:22:12.664Z,0.73
2022-08-07T10:24:53.973Z,1.08
2022-08-07T10:27:46.488Z,0.80
2022-08-07T10:30:19.612Z,0.90
2022-08-07T10:33:08.435Z,1.10
2022-08-07T10:36:10.901Z,1.15
2022-08-07T10:38:50.136Z,1.10
2022-08-07T10:41:46.495Z,0.95
2022-08-07T10:44:37.580Z,1.13
2022-08-07T10:47:51.390Z,0.88
2022-08-07T10:50:42.412Z,1.30
2022-08-07T10:53:45.572Z,0.73
2022-08-07T10:56:32.890Z,0.88
2022-08-07T10:59:21.417Z,1.08
2022-08-07T11:02:33.645Z,0.90
2022-08-07T11:05:24.239Z,0.93
2022-08-07T11:08:30.270Z,1.00
2022-08-07T11:11:05.456Z,0.80
2022-08-07T11:14:44.045Z,1.27
2022-08-07T11:17:01.105Z,0.85
2022-08-07T11:19:48.348Z,0.93
2022-08-07T11:22:49.722Z,0.90
2022-08-07T11:25:42.476Z,1.13
2022-08-07T11:28:19.421Z,1.27
2022-08-07T11:31:13.207Z,0.93
2022-08-07T11:33:58.749Z,1.23
2022-08-07T11:37:04.986Z,1.00
2022-08-07T11:40:01.424Z,1.05
2022-08-07T11:42:42.465Z,0.80
2022-08-07T11:45:49.830Z,1.10
2022-08-07T11:48:42.377Z,0.90
2022-08-07T11:51:41.644Z,1.00
2022-08-07T11:54:32.938Z,0.65
2022-08-07T11:57:18.887Z,0.75
2022-08-07T12:00:19.058Z,0.65
2022-08-07T12:02:52.218Z,0.98
2022-08-07T12:05:48.918Z,0.90
2022-08-07T12:08:34.741Z,0.82
2022-08-07T12:11:21.119Z,0.73
2022-08-07T12:14:03.753Z,0.95
2022-08-07T12:16:47.721Z,0.68
2022-08-07T12:20:03.471Z,0.70
2022-08-07T12:22:56.256Z,0.88
2022-08-07T12:26:05.528Z,0.70
2022-08-07T12:29:05.951Z,1.00
2022-08-07T12:31:52.920Z,0.82
2022-08-07T12:34:29.910Z,0.90
2022-08-07T12:36:57.714Z,0.80
2022-08-07T12:39:43.740Z,0.70
2022-08-07T12:42:27.189Z,0.80
2022-08-07T12:44:58.702Z,0.60
2022-08-07T12:47:33.775Z,1.00
2022-08-07T12:50:33.856Z,0.80
2022-08-07T12:53:27.793Z,0.77
2022-08-07T12:56:16.099Z,0.95
2022-08-07T12:58:46.800Z,0.90
2022-08-07T13:01:32.107Z,0.70
2022-08-07T13:04:44.109Z,1.00
2022-08-07T13:08:14.362Z,1.77
2022-08-07T13:10:57.049Z,1.02
2022-08-07T13:14:03.756Z,1.00
2022-08-07T13:16:54.864Z,0.60
2022-08-07T13:19:45.653Z,0.70
2022-08-07T13:22:31.336Z,0.63
2022-08-07T13:25:24.168Z,0.80
2022-08-07T13:28:10.621Z,0.90
2022-08-07T13:30:49.168Z,0.73
2022-08-07T13:34:33.919Z,0.70
2022-08-07T13:36:17.773Z,0.90
2022-08-07T13:38:54.400Z,1.00
2022-08-07T13:41:21.650Z,1.17
2022-08-07T13:43:56.091Z,1.13
2022-08-07T13:46:32.869Z,0.90
2022-08-07T13:49:04.154Z,0.80
2022-08-07T13:52:04.913Z,0.93
2022-08-07T13:54:33.523Z,0.77
2022-08-07T13:57:03.875Z,0.98
2022-08-07T13:59:35.119Z,1.00
2022-08-07T14:02:12.798Z,1.10
2022-08-07T14:04:54.658Z,0.82
2022-08-07T14:07:32.472Z,0.82
2022-08-07T14:10:21.911Z,0.70
2022-08-07T14:12:58.734Z,0.85
2022-08-07T14:15:32.025Z,0.80
2022-08-07T14:18:27.815Z,0.70
2022-08-07T14:21:20.993Z,0.93
2022-08-07T14:24:04.068Z,1.00
2022-08-07T14:26:40.764Z,0.70
2022-08-07T14:30:07.786Z,0.95
2022-08-07T14:32:19.379Z,0.70
2022-08-07T14:34:48.208Z,0.98
2022-08-07T14:37:38.918Z,1.10
2022-08-07T14:40:16.417Z,0.95
2022-08-07T14:43:54.982Z,0.80
2022-08-07T14:48:41.754Z,0.90
2022-08-07T14:51:15.719Z,0.80
2022-08-07T14:54:06.613Z,0.90
2022-08-07T14:56:33.638Z,1.33
2022-08-07T14:59:13.872Z,0.90
2022-08-07T15:02:08.249Z,0.90
2022-08-07T15:04:56.318Z,1.00
2022-08-07T15:07:46.325Z,0.77
2022-08-07T15:13:05.807Z,1.50
2022-08-07T15:13:19.724Z,0.95
2022-08-07T15:15:52.643Z,0.90
2022-08-07T15:18:34.034Z,0.90
2022-08-07T15:21:43.888Z,0.80
2022-08-07T15:25:15.439Z,0.70
2022-08-07T15:27:12.388Z,0.73
2022-08-07T15:30:09.384Z,1.00
2022-08-07T15:32:39.538Z,0.70
2022-08-07T15:38:17.847Z,0.80
2022-08-07T15:41:23.012Z,1.27
2022-08-07T15:44:03.608Z,1.10
2022-08-07T15:46:38.527Z,0.90
2022-08-07T15:49:18.662Z,0.90
2022-08-07T15:54:34.244Z,1.10
2022-08-07T15:57:03.084Z,0.98
2022-08-07T15:59:39.276Z,1.00
2022-08-07T16:02:15.019Z,0.90
2022-08-07T16:04:44.077Z,1.10
2022-08-07T16:08:29.004Z,0.90
2022-08-07T16:10:14.655Z,0.85
2022-08-07T16:13:04.850Z,1.10
2022-08-07T16:16:42.788Z,1.02
2022-08-07T16:19:09.657Z,1.40
2022-08-07T16:22:03.471Z,1.00
2022-08-07T16:24:52.650Z,0.90
2022-08-07T16:27:40.343Z,0.90
2022-08-07T16:30:30.341Z,1.17
2022-08-07T16:34:02.929Z,1.00
2022-08-07T16:36:23.092Z,0.90
2022-08-07T16:39:40.291Z,0.93
2022-08-07T16:42:42.500Z,1.00
2022-08-07T16:46:33.173Z,1.05
2022-08-07T16:48:58.517Z,1.00
2022-08-07T16:51:54.227Z,1.30
2022-08-07T16:54:34.472Z,2.42
2022-08-07T16:57:15.508Z,1.67
2022-08-07T16:59:58.131Z,1.00
2022-08-07T17:02:52.957Z,1.40
2022-08-07T17:06:26.615Z,1.40
2022-08-07T17:09:08.671Z,1.25
2022-08-07T17:12:04.070Z,1.33
2022-08-07T17:14:41.704Z,1.30
2022-08-07T17:17:46.102Z,0.95
2022-08-07T17:20:41.713Z,1.23
2022-08-07T17:23:56.730Z,1.20
2022-08-07T17:26:58.716Z,1.40
2022-08-07T17:30:14.764Z,1.35
2022-08-07T17:32:31.162Z,1.40
2022-08-07T17:35:51.305Z,1.55
2022-08-07T17:38:56.877Z,1.60
2022-08-07T17:42:01.874Z,1.65
2022-08-07T17:44:54.522Z,1.73
2022-08-07T17:47:42.208Z,2.00
2022-08-07T17:50:30.438Z,2.10
2022-08-07T17:53:05.852Z,1.70
2022-08-07T17:55:55.815Z,1.63
2022-08-07T17:58:47.079Z,1.40
2022-08-07T18:01:34.754Z,1.40
2022-08-07T18:04:31.225Z,1.52
2022-08-07T18:07:34.608Z,1.65
2022-08-07T18:10:32.655Z,1.90
2022-08-07T18:13:23.130Z,1.90
2022-08-07T18:16:31.142Z,1.90
2022-08-07T18:21:11.871Z,1.85
2022-08-07T18:22:16.943Z,1.73
2022-08-07T18:25:19.259Z,1.75
2022-08-07T18:27:54.960Z,1.70
2022-08-07T18:30:36.741Z,1.80
2022-08-07T18:33:22.070Z,1.85
2022-08-07T18:36:17.185Z,1.90
2022-08-07T18:40:07.164Z,2.00
2022-08-07T18:42:27.828Z,2.03
2022-08-07T18:45:44.659Z,2.30
2022-08-07T18:48:01.295Z,1.95
2022-08-07T18:50:52.575Z,2.17
2022-08-07T18:53:33.424Z,1.70
2022-08-07T18:57:23.255Z,1.75
2022-08-07T18:59:58.859Z,1.63
2022-08-07T19:02:50.668Z,1.83
2022-08-07T19:06:03.545Z,1.80
2022-08-07T19:08:46.240Z,1.73
2022-08-07T19:11:36.334Z,1.80
2022-08-07T19:14:26.182Z,2.37
2022-08-07T19:17:06.430Z,2.73
2022-08-07T19:19:41.527Z,2.87
2022-08-07T19:22:30.757Z,2.03
2022-08-07T19:25:06.287Z,2.17
2022-08-07T19:28:30.006Z,2.57
2022-08-07T19:31:00.218Z,2.60
2022-08-07T19:33:34.795Z,2.43
2022-08-07T19:36:03.216Z,2.30
2022-08-07T19:38:34.335Z,2.53
2022-08-07T19:41:02.784Z,2.33
2022-08-07T19:43:44.158Z,2.90
2022-08-07T19:46:26.475Z,3.10
2022-08-07T19:49:12.761Z,3.10
2022-08-07T19:51:52.839Z,3.23
2022-08-07T19:54:32.757Z,3.10
2022-08-07T19:58:00.143Z,2.80
2022-08-07T20:00:08.747Z,3.27
2022-08-07T20:02:51.888Z,3.10
2022-08-07T20:05:27.859Z,3.10
2022-08-07T20:08:02.175Z,3.27
2022-08-07T20:10:36.214Z,2.93
2022-08-07T20:13:26.727Z,3.73
2022-08-07T20:15:57.776Z,4.60
2022-08-07T20:18:33.538Z,4.10
2022-08-07T20:21:20.916Z,3.90
2022-08-07T20:24:00.415Z,4.40
2022-08-07T20:26:44.966Z,4.90
2022-08-07T20:29:49.158Z,3.73
2022-08-07T20:32:11.600Z,4.10
2022-08-07T20:34:53.926Z,3.43
2022-08-07T20:37:23.991Z,3.60
2022-08-07T20:40:02.501Z,2.47
2022-08-07T20:42:33.632Z,2.57
2022-08-07T20:45:01.585Z,2.23
2022-08-07T20:47:56.404Z,2.50
2022-08-07T20:50:22.025Z,2.33
2022-08-07T20:52:52.183Z,2.23
2022-08-07T20:55:25.524Z,1.93
2022-08-07T20:58:04.037Z,1.80
2022-08-07T21:00:50.060Z,2.23
2022-08-07T21:03:19.282Z,2.10
2022-08-07T21:06:21.451Z,2.00
2022-08-07T21:09:03.890Z,2.00
2022-08-07T21:11:50.521Z,2.13
2022-08-07T21:14:33.243Z,2.30
2022-08-07T21:18:03.444Z,2.07
2022-08-07T21:20:05.290Z,2.53
2022-08-07T21:22:45.096Z,2.20
2022-08-07T21:25:56.403Z,1.93
2022-08-07T21:28:49.955Z,2.00
2022-08-07T21:32:41.773Z,2.30
2022-08-07T21:34:46.037Z,2.27
2022-08-07T21:37:59.604Z,1.90
2022-08-07T21:40:36.072Z,2.50
2022-08-07T21:43:11.147Z,2.50
2022-08-07T21:46:10.743Z,2.20
2022-08-07T21:48:59.719Z,2.00
2022-08-07T21:51:33.625Z,2.10
2022-08-07T21:54:33.626Z,2.70
2022-08-07T21:57:44.736Z,2.50
2022-08-07T22:00:25.084Z,2.90
2022-08-07T22:03:16.817Z,2.87
2022-08-07T22:05:58.385Z,2.80
2022-08-07T22:08:37.060Z,2.60
2022-08-07T22:11:05.785Z,3.30
2022-08-07T22:13:51.900Z,3.00
2022-08-07T22:16:43.195Z,3.70
2022-08-07T22:19:27.035Z,3.37
2022-08-07T22:22:28.622Z,3.70
2022-08-07T22:25:12.058Z,3.20
2022-08-07T22:28:20.049Z,2.90
2022-08-07T22:30:56.555Z,2.83
2022-08-07T22:33:52.549Z,2.87
2022-08-07T22:36:42.259Z,2.50
2022-08-07T22:39:53.130Z,2.50
2022-08-07T22:42:53.846Z,2.80
2022-08-07T22:46:04.484Z,2.57
2022-08-07T22:48:55.038Z,3.00
2022-08-07T22:51:27.234Z,2.60
2022-08-07T22:54:37.915Z,2.47
2022-08-07T22:57:32.901Z,2.30
2022-08-07T23:00:08.153Z,2.70
2022-08-07T23:02:56.773Z,3.17
2022-08-07T23:06:08.459Z,2.50
2022-08-07T23:08:47.890Z,2.73
2022-08-07T23:11:59.125Z,3.10
2022-08-07T23:14:36.926Z,3.17
2022-08-07T23:17:30.599Z,2.70
2022-08-07T23:20:40.505Z,2.77
2022-08-07T23:24:05.318Z,2.30
2022-08-07T23:26:16.651Z,2.60
2022-08-07T23:29:43.573Z,2.63
2022-08-07T23:34:23.250Z,2.30
2022-08-07T23:35:21.719Z,2.67
2022-08-07T23:38:01.385Z,2.57
2022-08-07T23:40:34.924Z,2.20
2022-08-07T23:43:24.816Z,2.30
2022-08-07T23:46:03.165Z,2.00
2022-08-07T23:48:40.981Z,2.33
2022-08-07T23:53:01.317Z,2.27
2022-08-07T23:54:44.354Z,2.30
2022-08-07T23:57:40.094Z,2.27
